Terminal Aerodrome Forecast
Issued by NWS

Home | Current Version | Previous Version | Text Only | Print | Product List | Glossary On
Versions: 1 2 3 4 5 6 7 8 9 10 11 12 13
000
FTUS41 KPBZ 241507 AAA
TAFMGW
TAF AMD
KMGW 241507Z 2415/2512 10008KT 6SM -RA OVC060
     FM241700 11012KT 5SM -RA OVC040
     FM250200 10012KT P6SM VCSH OVC030
     FM250800 06003KT P6SM VCSH OVC015=

USA.gov is the U.S. government's official web portal to all federal, state and local government web resources and services.